Time;durP1;ratioP1;P1;durP2;ratioP2;P2;SDS_P1;SDS_P2;PMS_P1;PMS_P2;Temp;Humidity;BMP_temperature;BMP_pressure;BME280_temperature;BME280_humidity;BME280_pressure;Samples;Min_cycle;Max_cycle;Signal;HPM_P1;HPM_P2
2022/02/18 00:00:02;;;;;;;15.10;3.93;;;;;;;;;;5091439;28;20495;-68
2022/02/18 00:02:30;;;;;;;15.33;3.77;;;;;;;;;;5090887;28;20481;-68
2022/02/18 00:04:57;;;;;;;19.43;5.50;;;;;;;;;;5091592;28;20936;-67
2022/02/18 00:07:24;;;;;;;9.77;2.70;;;10.40;99.90;;;;;;5091160;28;20441;-68
2022/02/18 00:09:51;;;;;;;13.80;4.50;;;;;;;;;;5091381;28;20445;-68
2022/02/18 00:12:19;;;;;;;15.57;4.03;;;;;;;;;;5090535;28;20440;-68
2022/02/18 00:14:46;;;;;;;12.47;3.17;;;;;;;;;;5078351;28;20453;-68
2022/02/18 00:17:13;;;;;;;10.77;3.10;;;;;;;;;;5091358;28;20459;-70
2022/02/18 00:19:41;;;;;;;16.10;2.77;;;;;;;;;;5090091;28;20539;-68
2022/02/18 00:22:09;;;;;;;14.70;3.10;;;;;;;;;;5089731;28;20539;-69
2022/02/18 00:24:36;;;;;;;14.20;4.47;;;;;;;;;;5084866;28;20480;-70
2022/02/18 00:27:03;;;;;;;16.50;4.77;;;;;;;;;;5080476;28;20551;-70
2022/02/18 00:29:30;;;;;;;12.97;4.00;;;;;;;;;;5079916;28;20536;-70
2022/02/18 00:31:57;;;;;;;18.07;3.10;;;;;;;;;;5090424;28;20536;-70
2022/02/18 00:34:25;;;;;;;7.67;2.60;;;;;;;;;;5090165;28;20524;-70
2022/02/18 00:36:53;;;;;;;8.80;2.93;;;;;;;;;;5090888;28;20955;-70
2022/02/18 00:39:20;;;;;;;12.07;3.70;;;;;;;;;;5082596;28;20533;-70
2022/02/18 00:41:47;;;;;;;9.50;3.30;;;;;;;;;;5087266;28;20528;-70
2022/02/18 00:44:15;;;;;;;15.47;3.13;;;;;;;;;;5089727;28;20504;-71
2022/02/18 00:46:42;;;;;;;9.90;3.77;;;;;;;;;;5090592;28;20483;-70
2022/02/18 00:49:09;;;;;;;10.30;3.60;;;;;;;;;;5090572;28;20444;-70
2022/02/18 00:51:37;;;;;;;11.63;3.80;;;;;;;;;;5088778;28;20492;-69
2022/02/18 00:54:06;;;;;;;10.50;2.80;;;;;;;;;;5085808;28;20476;-70
2022/02/18 00:56:33;;;;;;;9.57;3.50;;;;;;;;;;5089265;28;20445;-70
2022/02/18 00:59:02;;;;;;;10.33;3.13;;;;;;;;;;5090645;28;20452;-70
2022/02/18 01:01:29;;;;;;;17.70;2.83;;;;;;;;;;5089646;28;20457;-70
2022/02/18 01:03:57;;;;;;;13.43;3.70;;;;;;;;;;5089985;28;20475;-69
2022/02/18 01:06:24;;;;;;;10.87;4.03;;;;;;;;;;5089376;28;20534;-71
2022/02/18 01:08:51;;;;;;;16.50;4.10;;;;;;;;;;5090029;28;20929;-69
2022/02/18 01:11:20;;;;;;;12.20;3.20;;;;;;;;;;5089663;28;20539;-69
2022/02/18 01:13:47;;;;;;;9.40;2.93;;;;;;;;;;5091781;28;20837;-69
2022/02/18 01:16:15;;;;;;;12.50;3.00;;;;;;;;;;5090794;28;20456;-70
2022/02/18 01:18:42;;;;;;;16.03;2.80;;;;;;;;;;5090039;28;20448;-69
2022/02/18 01:21:09;;;;;;;11.87;4.10;;;;;;;;;;5090332;28;20452;-69
2022/02/18 01:23:36;;;;;;;15.77;3.43;;;;;;;;;;5089797;28;21358;-69
2022/02/18 01:26:04;;;;;;;7.47;2.30;;;;;;;;;;5090547;28;20444;-69
2022/02/18 01:28:32;;;;;;;11.30;2.63;;;;;;;;;;5090043;28;21246;-69
2022/02/18 01:31:00;;;;;;;12.13;2.73;;;;;;;;;;5089232;28;20535;-69
2022/02/18 01:33:27;;;;;;;13.10;3.53;;;;;;;;;;5090479;28;20881;-69
2022/02/18 01:35:54;;;;;;;9.00;3.90;;;;;;;;;;5090314;28;20453;-69
2022/02/18 01:38:21;;;;;;;10.47;4.60;;;;;;;;;;5090140;28;20448;-69
2022/02/18 01:40:48;;;;;;;20.77;3.50;;;;;;;;;;5089941;28;20455;-69
2022/02/18 01:43:15;;;;;;;15.03;3.67;;;;;;;;;;5087995;28;20446;-70
2022/02/18 01:45:44;;;;;;;13.10;3.47;;;;;;;;;;5093996;28;20447;-69
2022/02/18 01:48:11;;;;;;;15.37;4.37;;;;;;;;;;5093711;28;20450;-72
2022/02/18 01:50:38;;;;;;;14.87;3.40;;;;;;;;;;5093638;28;20932;-69
2022/02/18 01:53:08;;;;;;;14.23;3.20;;;;;;;;;;5093652;28;20842;-69
2022/02/18 01:55:36;;;;;;;14.53;3.93;;;;;;;;;;5093775;28;20476;-69
2022/02/18 01:58:03;;;;;;;9.47;2.93;;;;;;;;;;5089783;28;20449;-69
2022/02/18 02:00:31;;;;;;;14.40;3.40;;;;;;;;;;5093190;28;20450;-70
2022/02/18 02:03:02;;;;;;;8.93;2.67;;;;;;;;;;5093519;28;20444;-70
2022/02/18 02:05:29;;;;;;;13.80;4.40;;;;;;;;;;5093131;28;20468;-70
2022/02/18 02:07:59;;;;;;;7.40;2.50;;;;;;;;;;5093449;28;20451;-70
2022/02/18 02:10:26;;;;;;;14.40;2.63;;;;;;;;;;5092502;28;20452;-70
2022/02/18 02:12:53;;;;;;;13.73;3.73;;;;;;;;;;5094037;28;20539;-70
2022/02/18 02:15:22;;;;;;;7.77;2.40;;;;;;;;;;5093304;28;20818;-70
2022/02/18 02:17:50;;;;;;;6.00;3.00;;;;;;;;;;5093994;28;20455;-70
2022/02/18 02:20:18;;;;;;;4.73;2.30;;;;;;;;;;5092773;28;20437;-70
2022/02/18 02:22:47;;;;;;;13.90;2.90;;;;;;;;;;5090618;28;20539;-70
2022/02/18 02:25:14;;;;;;;9.17;3.57;;;;;;;;;;5093025;28;20483;-71
2022/02/18 02:27:41;;;;;;;6.03;2.50;;;;;;;;;;5093721;28;20527;-70
2022/02/18 02:30:10;;;;;;;8.50;3.47;;;;;;;;;;5092662;28;20947;-69
2022/02/18 02:32:37;;;;;;;14.00;3.50;;;;;;;;;;5079800;28;20509;-70
2022/02/18 02:35:05;;;;;;;10.90;2.70;;;;;;;;;;5092829;28;20459;-70
2022/02/18 02:37:32;;;;;;;10.30;2.83;;;;;;;;;;5092798;28;20441;-70
2022/02/18 02:40:00;;;;;;;8.47;3.17;;;;;;;;;;5092449;28;20455;-70
2022/02/18 02:42:28;;;;;;;9.33;3.50;;;;;;;;;;5092210;28;20451;-70
2022/02/18 02:44:55;;;;;;;8.97;3.73;;;;;;;;;;5092469;28;20472;-70
2022/02/18 02:47:22;;;;;;;8.40;3.30;;;;;;;;;;5087253;28;20455;-70
2022/02/18 02:49:49;;;;;;;8.17;2.73;;;;;;;;;;5092594;28;20528;-70
2022/02/18 02:52:16;;;;;;;6.67;2.53;;;;;;;;;;5092022;28;20509;-70
2022/02/18 02:54:44;;;;;;;7.90;2.70;;;;;;;;;;5091826;28;20465;-70
2022/02/18 02:57:12;;;;;;;15.90;3.07;;;;;;;;;;5092294;28;20448;-70
2022/02/18 02:59:39;;;;;;;13.60;3.30;;;;;;;;;;5091965;28;20456;-69
2022/02/18 03:02:06;;;;;;;15.53;3.17;;;;;;;;;;5088975;28;20460;-69
2022/02/18 03:04:34;;;;;;;8.57;2.43;;;;;;;;;;5091613;28;20480;-69
2022/02/18 03:07:01;;;;;;;14.73;5.37;;;;;;;;;;5092363;28;20459;-69
2022/02/18 03:09:28;;;;;;;17.17;5.07;;;;;;;;;;5091294;28;20452;-69
2022/02/18 03:11:55;;;;;;;10.40;2.97;;;;;;;;;;5092898;28;20448;-69
2022/02/18 03:14:25;;;;;;;13.40;3.93;;;;;;;;;;5091639;28;20541;-69
2022/02/18 03:16:52;;;;;;;8.30;2.20;;;;;;;;;;5089425;28;20444;-70
2022/02/18 03:19:19;;;;;;;12.23;3.20;;;;;;;;;;5090816;28;20806;-69
2022/02/18 03:21:51;;;;;;;3.90;2.60;;;;;;;;;;5092621;28;20885;-69
2022/02/18 03:24:18;;;;;;;6.10;2.33;;;;;;;;;;5091111;28;20816;-70
2022/02/18 03:26:45;;;;;;;11.03;2.83;;;;;;;;;;5092132;28;20978;-69
2022/02/18 03:29:13;;;;;;;8.23;3.37;;;;;;;;;;5090581;28;20531;-70
2022/02/18 03:31:41;;;;;;;9.87;2.53;;;;;;;;;;5092228;28;20449;-69
2022/02/18 03:34:08;;;;;;;7.67;2.70;;;;;;;;;;5092191;28;20535;-69
2022/02/18 03:36:35;;;;;;;9.67;3.00;;;;;;;;;;5090700;28;20483;-69
2022/02/18 03:39:03;;;;;;;12.40;2.57;;;;;;;;;;5091462;28;20452;-69
2022/02/18 03:41:31;;;;;;;11.40;2.80;;;;;;;;;;5091610;28;20476;-69
2022/02/18 03:43:58;;;;;;;7.70;2.40;;;;;;;;;;5078352;28;20557;-69
2022/02/18 03:46:25;;;;;;;8.83;2.80;;;;;;;;;;5090069;28;20448;-70
2022/02/18 03:48:54;;;;;;;8.53;2.67;;;;;;;;;;5091389;28;20445;-70
2022/02/18 03:51:21;;;;;;;9.20;2.60;;;;;;;;;;5087261;28;20492;-70
2022/02/18 03:53:49;;;;;;;10.87;3.47;;;;;;;;;;5091194;28;20473;-70
2022/02/18 03:56:17;;;;;;;9.40;2.57;;;;;;;;;;5090697;28;20452;-70
2022/02/18 03:58:44;;;;;;;16.83;2.83;;;;;;;;;;5090928;28;20527;-70
2022/02/18 04:01:11;;;;;;;8.57;2.73;;;;;;;;;;5091918;28;20518;-70
2022/02/18 04:03:41;;;;;;;11.67;2.80;;;;;;;;;;5091732;28;20457;-69
2022/02/18 04:06:10;;;;;;;9.10;2.97;;;;;;;;;;5090210;28;20488;-70
2022/02/18 04:08:37;;;;;;;10.23;2.60;;;;;;;;;;5089808;28;20517;-70
2022/02/18 04:11:04;;;;;;;18.00;3.10;;;;;;;;;;5091539;28;20441;-69
2022/02/18 04:13:31;;;;;;;12.23;2.70;;;;;;;;;;5090564;28;21323;-69
2022/02/18 04:15:58;;;;;;;8.80;3.40;;;;;;;;;;5090636;28;20444;-69
2022/02/18 04:18:25;;;;;;;9.20;2.70;;;;;;;;;;5090429;28;20464;-69
2022/02/18 04:20:52;;;;;;;6.57;1.93;;;;;;;;;;5090416;28;20445;-69
2022/02/18 04:23:21;;;;;;;9.30;2.60;;;;;;;;;;5090847;28;20447;-71
2022/02/18 04:25:48;;;;;;;8.93;2.67;;;;;;;;;;5078865;28;20472;-71
2022/02/18 04:28:17;;;;;;;12.00;2.67;;;;;;;;;;5090536;28;20540;-72
2022/02/18 04:30:44;;;;;;;13.40;2.70;;;;;;;;;;5090525;28;20449;-71
2022/02/18 04:33:15;;;;;;;12.70;2.40;;;;;;;;;;5086705;28;20536;-72
2022/02/18 04:35:42;;;;;;;16.90;2.90;;;;;;;;;;5090951;28;20527;-71
2022/02/18 04:38:09;;;;;;;10.30;2.50;;;;;;;;;;5091070;28;20455;-69
2022/02/18 04:40:38;;;;;;;8.00;2.50;;;;;;;;;;5090179;28;21247;-69
2022/02/18 04:43:05;;;;;;;12.10;2.60;;;;;;;;;;5091469;28;20483;-70
2022/02/18 04:45:32;;;;;;;6.47;2.77;;;;;;;;;;5081709;28;20568;-69
2022/02/18 04:47:59;;;;;;;8.33;2.10;;;;;;;;;;5091427;28;20455;-68
2022/02/18 04:50:26;;;;;;;14.63;3.57;;;;;;;;;;5089795;28;20802;-69
2022/02/18 04:52:54;;;;;;;13.37;2.97;;;;;;;;;;5090875;28;20565;-70
2022/02/18 04:55:22;;;;;;;6.33;2.57;;;;;;;;;;5090004;28;20531;-69
2022/02/18 04:57:50;;;;;;;9.80;2.70;;;;;;;;;;5084889;28;20543;-69
2022/02/18 05:00:18;;;;;;;8.87;3.30;;;;;;;;;;5089131;28;20468;-69
2022/02/18 05:02:46;;;;;;;15.83;3.37;;;;;;;;;;5090579;28;20474;-69
2022/02/18 05:05:13;;;;;;;9.10;2.60;;;;;;;;;;5090674;28;20479;-69
2022/02/18 05:07:40;;;;;;;8.00;2.97;;;;;;;;;;5091257;28;21000;-69
2022/02/18 05:10:08;;;;;;;9.87;2.00;;;;;;;;;;5091269;28;20445;-68
2022/02/18 05:12:36;;;;;;;12.03;2.83;;;;;;;;;;5089625;28;20445;-69
2022/02/18 05:15:04;;;;;;;7.30;3.03;;;;;;;;;;5090623;28;20531;-69
2022/02/18 05:17:32;;;;;;;5.90;2.27;;;;;;;;;;5092721;28;21147;-69
2022/02/18 05:19:59;;;;;;;13.13;3.90;;;;;;;;;;5094507;28;20448;-69
2022/02/18 05:22:26;;;;;;;10.40;2.50;;;;;;;;;;5094140;28;20551;-69
2022/02/18 05:24:53;;;;;;;3.57;2.43;;;;;;;;;;5093809;28;20479;-69
2022/02/18 05:27:20;;;;;;;10.87;3.30;;;;;;;;;;5093789;28;20531;-70
2022/02/18 05:29:47;;;;;;;17.13;3.17;;;;;;;;;;5094015;28;20455;-70
2022/02/18 05:32:16;;;;;;;14.60;3.20;;;;;;;;;;5093554;28;20569;-71
2022/02/18 05:34:43;;;;;;;7.40;2.63;;;;;;;;;;5094552;28;20543;-69
2022/02/18 05:37:11;;;;;;;9.40;3.50;;;;;;;;;;5094161;28;20453;-69
2022/02/18 05:39:38;;;;;;;6.93;2.07;;;;;;;;;;5092870;28;20455;-69
2022/02/18 05:42:06;;;;;;;17.43;3.53;;;;;;;;;;5094362;28;20531;-69
2022/02/18 05:44:34;;;;;;;13.37;3.97;;;;;;;;;;5093182;28;20428;-70
2022/02/18 05:47:01;;;;;;;9.53;3.00;;;;;;;;;;5093893;28;21133;-70
2022/02/18 05:49:30;;;;;;;13.20;3.37;;;;;;;;;;5093082;28;20931;-70
2022/02/18 05:51:58;;;;;;;11.57;3.50;;;;;;;;;;5093720;28;20459;-71
2022/02/18 05:54:25;;;;;;;10.83;3.30;;;;;;;;;;5093272;28;20445;-70
2022/02/18 05:56:52;;;;;;;8.60;2.57;;;;;;;;;;5087762;28;20536;-70
2022/02/18 05:59:19;;;;;;;6.70;2.77;;;;;;;;;;5087792;28;20445;-70
2022/02/18 06:01:47;;;;;;;11.27;3.03;;;;;;;;;;5093446;28;20527;-69
2022/02/18 06:04:14;;;;;;;10.80;2.40;;;;;;;;;;5094677;28;20531;-71
2022/02/18 06:06:43;;;;;;;10.90;2.47;;;;;;;;;;5089943;28;20476;-70
2022/02/18 06:09:11;;;;;;;10.90;2.60;;;;;;;;;;5093313;28;20964;-70
2022/02/18 06:11:38;;;;;;;12.60;3.43;;;;;;;;;;5094110;28;20967;-70
2022/02/18 06:14:06;;;;;;;14.60;2.60;;;;;;;;;;5093909;28;20853;-70
2022/02/18 06:16:33;;;;;;;12.73;2.83;;;;;;;;;;5092652;28;20444;-70
2022/02/18 06:19:03;;;;;;;6.23;2.40;;;;;;;;;;5093582;28;20451;-70
2022/02/18 06:21:30;;;;;;;7.77;2.50;;;;;;;;;;5092183;28;20518;-70
2022/02/18 06:23:59;;;;;;;11.53;2.70;;;;;;;;;;5091970;28;20488;-70
2022/02/18 06:26:26;;;;;;;15.77;2.50;;;;;;;;;;5088622;28;20483;-66
2022/02/18 06:28:53;;;;;;;9.07;2.47;;;;;;;;;;5088848;28;20868;-69
2022/02/18 06:31:21;;;;;;;12.57;3.37;;;;;;;;;;5084909;28;20801;-70
2022/02/18 06:33:49;;;;;;;12.00;3.17;;;;;;;;;;5090402;28;20445;-70
2022/02/18 06:36:16;;;;;;;9.07;2.53;;;;;;;;;;5093072;28;20486;-69
2022/02/18 06:38:44;;;;;;;12.87;2.97;;;;;;;;;;5093570;28;20453;-69
2022/02/18 06:41:13;;;;;;;8.20;2.20;;;;;;;;;;5093472;28;20514;-72
2022/02/18 06:43:40;;;;;;;16.53;3.70;;;;;;;;;;5088263;28;20444;-72
2022/02/18 06:46:07;;;;;;;11.50;3.63;;;;;;;;;;5093460;28;20844;-69
2022/02/18 06:48:34;;;;;;;15.13;3.53;;;;;;;;;;5091914;28;20449;-68
2022/02/18 06:51:02;;;;;;;8.73;2.33;;;;;;;;;;5092012;28;20470;-68
2022/02/18 06:53:29;;;;;;;6.20;2.60;;;;;;;;;;5092322;28;20468;-69
2022/02/18 06:55:56;;;;;;;12.23;3.20;;;;;;;;;;5092973;28;20535;-69
2022/02/18 06:58:25;;;;;;;15.90;3.73;;;;;;;;;;5092412;28;20444;-69
2022/02/18 07:00:52;;;;;;;10.77;3.40;;;;;;;;;;5092859;28;20527;-70
2022/02/18 07:03:20;;;;;;;11.73;2.77;;;;;;;;;;5092264;28;20453;-70
2022/02/18 07:05:48;;;;;;;8.30;2.50;;;;;;;;;;5092788;28;20476;-69
2022/02/18 07:08:15;;;;;;;7.60;3.17;;;;;;;;;;5092264;28;20467;-70
2022/02/18 07:10:43;;;;;;;11.50;2.37;;;;;;;;;;5092640;28;20441;-69
2022/02/18 07:13:10;;;;;;;8.17;2.70;;;;;;;;;;5092894;28;20480;-68
2022/02/18 07:15:39;;;;;;;9.43;2.90;;;;;;;;;;5093082;28;20448;-68
2022/02/18 07:18:06;;;;;;;8.87;2.93;;;;;;;;;;5092840;28;20535;-68
2022/02/18 07:20:34;;;;;;;9.10;2.50;;;;;;;;;;5091975;28;20521;-68
2022/02/18 07:23:01;;;;;;;7.20;3.60;;;;;;;;;;5092469;28;20463;-69
2022/02/18 07:25:28;;;;;;;10.60;3.20;;;;;;;;;;5091642;28;20568;-69
2022/02/18 07:27:55;;;;;;;12.43;3.13;;;;;;;;;;5092304;28;20536;-68
2022/02/18 07:30:23;;;;;;;11.87;3.37;;;;;;;;;;5091349;28;20452;-69
2022/02/18 07:32:52;;;;;;;11.93;2.47;;;;;;;;;;5092616;28;20448;-69
2022/02/18 07:35:20;;;;;;;7.30;3.00;;;;;;;;;;5091712;28;20498;-69
2022/02/18 07:37:49;;;;;;;11.47;2.77;;;;;;;;;;5092856;28;20444;-69
2022/02/18 07:40:17;;;;;;;7.20;2.50;;;;;;;;;;5090979;28;20448;-69
2022/02/18 07:42:44;;;;;;;8.47;2.40;;;;;;;;;;5092572;28;20452;-69
2022/02/18 07:45:12;;;;;;;9.10;3.23;;;;;;;;;;5092171;28;20445;-71
2022/02/18 07:47:39;;;;;;;8.93;3.53;;;;;;;;;;5092180;28;20483;-69
2022/02/18 07:50:08;;;;;;;7.03;2.50;;;;;;;;;;5091790;28;20456;-68
2022/02/18 07:52:37;;;;;;;6.33;2.83;;;;;;;;;;5091235;28;20590;-69
2022/02/18 07:55:04;;;;;;;8.73;3.47;;;;;;;;;;5092076;28;20452;-70
2022/02/18 07:57:32;;;;;;;6.00;2.47;;;;;;;;;;5091333;28;20528;-71
2022/02/18 07:59:59;;;;;;;10.10;2.37;;;;;;;;;;5091595;28;20450;-69
2022/02/18 08:02:26;;;;;;;10.57;2.47;;;;;;;;;;5091300;28;20452;-69
2022/02/18 08:04:54;;;;;;;6.00;2.30;;;;;;;;;;5091753;28;20532;-69
2022/02/18 08:07:22;;;;;;;6.73;2.03;;;;;;;;;;5090794;28;20475;-70
2022/02/18 08:09:49;;;;;;;8.37;2.17;;;;;;;;;;5091221;28;20536;-70
2022/02/18 08:12:17;;;;;;;8.47;2.20;;;;;;;;;;5090761;28;20455;-70
2022/02/18 08:14:44;;;;;;;7.57;2.33;;;;;;;;;;5091637;28;20540;-69
2022/02/18 08:17:11;;;;;;;8.07;2.17;;;;;;;;;;5091846;28;20523;-71
2022/02/18 08:19:38;;;;;;;4.17;1.50;;;;;;;;;;5091307;28;20480;-69
2022/02/18 08:22:06;;;;;;;5.63;1.97;;;;;;;;;;5091747;28;20548;-69
2022/02/18 08:24:34;;;;;;;7.53;1.90;;;;;;;;;;5090961;28;20563;-69
2022/02/18 08:27:02;;;;;;;5.47;1.80;;;;;;;;;;5091330;28;20567;-69
2022/02/18 08:29:29;;;;;;;5.67;1.93;;;;;;;;;;5090219;28;20453;-68
2022/02/18 08:31:57;;;;;;;5.03;2.17;;;;;;;;;;5091399;28;20451;-68
2022/02/18 08:34:24;;;;;;;7.03;1.73;;;;;;;;;;5090627;28;20523;-69
2022/02/18 08:36:52;;;;;;;9.37;1.80;;;;;;;;;;5091040;28;20459;-69
2022/02/18 08:39:19;;;;;;;3.57;1.60;;;;;;;;;;5089879;28;21033;-69
2022/02/18 08:41:48;;;;;;;7.10;2.07;;;;;;;;;;5091090;28;20449;-70
2022/02/18 08:44:15;;;;;;;1.90;1.13;;;;;;;;;;5090977;28;20832;-72
2022/02/18 08:46:42;;;;;;;3.70;1.30;;;;;;;;;;5091384;28;20484;-69
2022/02/18 08:49:09;;;;;;;5.53;1.73;;;;;;;;;;5090886;28;20449;-68
2022/02/18 08:51:37;;;;;;;2.70;1.23;;;;;;;;;;5089883;28;20492;-68
2022/02/18 08:54:05;;;;;;;1.97;1.30;;;;;;;;;;5090623;28;20831;-69
2022/02/18 08:56:32;;;;;;;5.70;1.77;;;;;;;;;;5090393;28;21165;-69
2022/02/18 08:59:01;;;;;;;7.57;1.63;;;;;;;;;;5090678;28;20529;-69
2022/02/18 09:01:28;;;;;;;4.63;1.43;;;;;;;;;;5090320;28;20463;-69
2022/02/18 09:03:56;;;;;;;7.30;1.07;;;;;;;;;;5090716;28;20928;-69
2022/02/18 09:06:23;;;;;;;2.20;1.27;;;;;;;;;;5089964;28;20595;-69
2022/02/18 09:08:50;;;;;;;3.60;1.30;;;;;;;;;;5090642;28;20531;-69
2022/02/18 09:11:19;;;;;;;5.40;1.37;;;;;;;;;;5089909;28;20958;-69
2022/02/18 09:13:47;;;;;;;2.83;1.20;;;;;;;;;;5090714;28;20448;-68
2022/02/18 09:16:15;;;;;;;5.53;1.80;;;;;;;;;;5090557;28;20476;-73
2022/02/18 09:18:43;;;;;;;4.40;1.30;;;;;;;;;;5090731;28;20861;-69
2022/02/18 09:21:10;;;;;;;2.87;0.83;;;;;;;;;;5090915;28;20486;-68
2022/02/18 09:23:37;;;;;;;2.20;0.97;;;;;;;;;;5090216;28;20453;-69
2022/02/18 09:26:04;;;;;;;1.90;1.03;;;;;;;;;;5077543;28;20487;-69
2022/02/18 09:28:32;;;;;;;1.20;0.97;;;;;;;;;;5090532;28;20472;-69
2022/02/18 09:30:59;;;;;;;4.50;1.43;;;;;;;;;;5090776;28;20444;-69
2022/02/18 09:33:30;;;;;;;2.13;1.70;;;;;;;;;;5090052;28;20452;-69
2022/02/18 09:35:57;;;;;;;2.50;0.83;;;;;;;;;;5090934;28;20551;-69
2022/02/18 09:38:26;;;;;;;2.80;1.43;;;;;;;;;;5089631;28;20940;-69
2022/02/18 09:40:54;;;;;;;2.17;1.07;;;;;;;;;;5089980;28;20445;-69
2022/02/18 09:43:21;;;;;;;2.00;1.13;;;;;;;;;;5089843;28;20444;-69
2022/02/18 09:45:49;;;;;;;4.60;1.00;;;;;;;;;;5090713;28;20527;-69
2022/02/18 09:48:16;;;;;;;1.20;0.97;;;;;;;;;;5089682;28;20448;-69
2022/02/18 09:50:44;;;;;;;1.83;0.90;;;;;;;;;;5090347;28;20849;-69
2022/02/18 09:53:12;;;;;;;1.77;0.70;;;;;;;;;;5090484;28;20567;-71
2022/02/18 09:55:40;;;;;;;2.10;0.87;;;;;;;;;;5090248;28;20452;-69
2022/02/18 09:58:08;;;;;;;3.30;1.20;;;9.00;99.90;;;;;;5090504;28;20460;-69
2022/02/18 10:00:36;;;;;;;2.33;0.93;;;13.90;1.00;;;;;;5089057;28;20514;-69
2022/02/18 10:03:03;;;;;;;1.37;1.00;;;14.00;1.00;;;;;;5090982;28;20791;-68
2022/02/18 10:05:30;;;;;;;4.10;1.13;;;14.10;1.00;;;;;;5093517;28;20447;-68
2022/02/18 10:08:06;;;;;;;1.67;0.97;;;14.20;1.00;;;;;;5094123;28;20480;-68
2022/02/18 10:10:34;;;;;;;1.83;0.90;;;14.20;1.00;;;;;;5093497;28;20871;-69
2022/02/18 10:13:02;;;;;;;2.60;0.70;;;14.30;1.00;;;;;;5093930;28;20553;-69
2022/02/18 10:15:30;;;;;;;3.53;0.97;;;14.40;1.00;;;;;;5093560;28;20589;-69
2022/02/18 10:18:01;;;;;;;2.70;1.20;;;14.40;1.00;;;;;;5093510;28;20452;-69
2022/02/18 10:20:29;;;;;;;2.83;0.80;;;14.50;1.00;;;;;;5092460;28;21027;-69
2022/02/18 10:22:59;;;;;;;1.03;0.77;;;14.60;1.00;;;;;;5094065;28;20502;-69
2022/02/18 10:25:29;;;;;;;1.27;0.90;;;14.60;1.00;;;;;;5093237;28;20440;-69
2022/02/18 10:27:57;;;;;;;4.17;1.20;;;14.60;1.00;;;;;;5093725;28;20571;-68
2022/02/18 10:30:26;;;;;;;2.67;1.00;;;14.60;1.00;;;;;;5092480;28;20502;-68
2022/02/18 10:32:53;;;;;;;3.93;1.73;;;14.90;1.00;;;;;;5093883;28;20453;-68
2022/02/18 10:35:31;;;;;;;2.87;0.90;;;15.00;1.00;;;;;;5092932;28;20449;-69
2022/02/18 10:37:57;;;;;;;6.57;2.10;;;15.10;1.00;;;;;;5093403;28;20447;-69
2022/02/18 10:40:24;;;;;;;1.60;0.80;;;15.10;1.00;;;;;;5092198;28;20800;-68
2022/02/18 10:42:55;;;;;;;3.97;2.03;;;15.20;1.00;;;;;;5093621;28;20570;-69
2022/02/18 10:45:24;;;;;;;2.37;0.87;;;15.20;1.00;;;;;;5092787;28;20523;-69
2022/02/18 10:48:05;;;;;;;3.10;1.13;;;15.20;1.00;;;;;;5093425;28;20490;-68
2022/02/18 10:50:32;;;;;;;1.63;1.07;;;15.40;1.00;;;;;;5092362;28;20436;-69
2022/02/18 10:53:15;;;;;;;1.90;1.27;;;15.50;1.00;;;;;;5093198;28;20504;-69
2022/02/18 10:55:50;;;;;;;1.20;0.90;;;15.80;1.00;;;;;;5093349;28;20448;-70
2022/02/18 10:58:23;;;;;;;1.03;0.80;;;15.70;1.00;;;;;;5092231;28;20935;-70
2022/02/18 11:01:06;;;;;;;2.40;1.17;;;15.80;1.00;;;;;;5092602;28;21031;-68
2022/02/18 11:03:34;;;;;;;3.87;1.00;;;16.00;1.00;;;;;;5080637;28;21110;-69
2022/02/18 11:06:11;;;;;;;1.50;0.90;;;16.40;1.00;;;;;;5094071;28;20453;-68
2022/02/18 11:08:40;;;;;;;2.20;0.80;;;16.30;1.00;;;;;;5092794;28;20475;-68
2022/02/18 11:11:11;;;;;;;3.27;1.10;;;16.40;99.90;;;;;;5092678;28;20526;-69
2022/02/18 11:13:41;;;;;;;1.10;0.80;;;16.70;99.90;;;;;;5092494;28;20455;-68
2022/02/18 11:16:11;;;;;;;3.53;0.80;;;16.70;99.90;;;;;;5093290;28;20464;-68
2022/02/18 11:18:39;;;;;;;5.00;1.03;;;16.60;99.90;;;;;;5092516;28;20969;-69
2022/02/18 11:21:07;;;;;;;4.07;1.40;;;16.60;99.90;;;;;;5093136;28;20452;-69
2022/02/18 11:23:35;;;;;;;2.53;1.37;;;16.70;99.90;;;;;;5092126;28;20440;-70
2022/02/18 11:26:02;;;;;;;5.23;1.00;;;16.70;99.90;;;;;;5092616;28;20461;-69
2022/02/18 11:28:30;;;;;;;3.60;1.20;;;16.70;99.90;;;;;;5091940;28;20781;-69
2022/02/18 11:31:03;;;;;;;1.50;0.63;;;16.60;99.90;;;;;;5092886;28;20489;-69
2022/02/18 11:33:43;;;;;;;4.70;1.00;;;16.40;99.90;;;;;;5091501;28;20967;-68
2022/02/18 11:36:40;;;;;;;4.67;1.10;;;16.20;99.90;;;;;;5092937;28;20444;-68
2022/02/18 11:39:31;;;;;;;1.90;0.70;;;16.10;99.90;;;;;;5092183;28;20543;-68
2022/02/18 11:42:10;;;;;;;3.10;0.90;;;16.20;99.90;;;;;;5092679;28;20441;-68
2022/02/18 11:44:38;;;;;;;3.63;1.10;;;16.30;99.90;;;;;;5092106;28;20449;-68
2022/02/18 11:47:14;;;;;;;2.17;1.27;;;16.40;99.90;;;;;;5092054;28;20541;-68
2022/02/18 11:49:41;;;;;;;3.50;1.20;;;16.40;99.90;;;;;;5092073;28;20436;-68
2022/02/18 11:52:11;;;;;;;2.60;1.30;;;16.50;99.90;;;;;;5091762;28;20462;-68
2022/02/18 11:54:38;;;;;;;3.20;1.10;;;16.50;99.90;;;;;;5091533;28;20527;-68
2022/02/18 11:57:07;;;;;;;2.07;1.10;;;16.50;99.90;;;;;;5092117;28;20444;-68
2022/02/18 11:59:46;;;;;;;3.43;0.90;;;16.50;99.90;;;;;;5090555;28;20531;-68
2022/02/18 12:02:14;;;;;;;2.20;1.37;;;16.60;99.90;;;;;;5092048;28;20455;-72
2022/02/18 12:04:41;;;;;;;2.50;1.20;;;16.60;99.90;;;;;;5092037;28;20452;-70
2022/02/18 12:07:32;;;;;;;1.50;1.03;;;16.60;99.90;;;;;;5091662;28;21018;-69
2022/02/18 12:10:21;;;;;;;2.93;1.03;;;16.70;99.90;;;;;;5091062;28;20498;-69
2022/02/18 12:12:48;;;;;;;4.40;1.77;;;16.70;99.90;;;;;;5091916;28;20459;-69
2022/02/18 12:15:19;;;;;;;1.20;0.80;;;16.80;99.90;;;;;;5091182;28;20447;-72
2022/02/18 12:17:51;;;;;;;1.93;1.10;;;16.90;99.90;;;;;;5092358;28;20453;-69
2022/02/18 12:20:25;;;;;;;1.47;0.63;;;16.80;99.90;;;;;;5090948;28;20455;-69
2022/02/18 12:22:52;;;;;;;2.90;1.20;;;16.70;99.90;;;;;;5091704;28;20543;-69
2022/02/18 12:25:27;;;;;;;2.80;1.07;;;16.70;99.90;;;;;;5090236;28;21032;-69
2022/02/18 12:27:56;;;;;;;2.40;0.83;;;16.50;99.90;;;;;;5091082;28;20484;-68
2022/02/18 12:30:42;;;;;;;1.27;0.80;;;16.60;99.90;;;;;;5090012;28;20448;-69
2022/02/18 12:33:13;;;;;;;2.17;1.17;;;16.50;99.90;;;;;;5091462;28;20519;-69
2022/02/18 12:35:40;;;;;;;2.30;1.07;;;16.60;99.90;;;;;;5091343;28;20441;-69
2022/02/18 12:38:10;;;;;;;1.73;1.00;;;16.70;99.90;;;;;;5091468;28;20456;-69
2022/02/18 12:40:41;;;;;;;2.73;1.03;;;16.70;99.90;;;;;;5090335;28;20451;-69
2022/02/18 12:43:14;;;;;;;2.03;1.60;;;16.80;99.90;;;;;;5091460;28;20452;-68
2022/02/18 12:45:53;;;;;;;3.00;0.77;;;16.60;99.90;;;;;;5078686;28;20448;-69
2022/02/18 12:48:36;;;;;;;2.83;1.63;;;16.60;99.90;;;;;;5090304;28;20511;-70
2022/02/18 12:51:09;;;;;;;1.10;0.60;;;16.60;99.90;;;;;;5091324;28;20498;-69
2022/02/18 12:53:36;;;;;;;3.40;0.77;;;16.60;99.90;;;;;;5090129;28;20487;-69
2022/02/18 12:56:03;;;;;;;1.57;0.67;;;16.60;99.90;;;;;;5090653;28;20480;-69
2022/02/18 12:58:30;;;;;;;1.67;1.10;;;16.60;99.90;;;;;;5089678;28;20442;-69
2022/02/18 13:00:57;;;;;;;0.77;0.63;;;16.60;99.90;;;;;;5091126;28;20447;-69
2022/02/18 13:03:25;;;;;;;1.70;0.80;;;16.50;99.90;;;;;;5090838;28;20528;-68
2022/02/18 13:06:03;;;;;;;1.10;0.80;;;16.40;99.90;;;;;;5091359;28;20445;-69
2022/02/18 13:08:32;;;;;;;1.80;0.87;;;16.40;99.90;;;;;;5090526;28;20830;-69
2022/02/18 13:11:11;;;;;;;2.90;1.03;;;16.40;99.90;;;;;;5090749;28;20448;-68
2022/02/18 13:13:38;;;;;;;1.23;1.13;;;16.50;99.90;;;;;;5091204;28;20436;-69
2022/02/18 13:16:05;;;;;;;2.20;1.07;;;16.60;99.90;;;;;;5090579;28;20448;-69
2022/02/18 13:18:32;;;;;;;1.10;0.90;;;16.60;99.90;;;;;;5089759;28;20448;-69
2022/02/18 13:21:00;;;;;;;2.40;0.90;;;16.70;99.90;;;;;;5090798;28;20486;-69
2022/02/18 13:23:29;;;;;;;1.53;0.93;;;16.70;99.90;;;;;;5090657;28;20808;-69
2022/02/18 13:25:57;;;;;;;4.37;0.70;;;16.70;99.90;;;;;;5091250;28;20512;-69
2022/02/18 13:28:27;;;;;;;2.67;1.00;;;16.80;99.90;;;;;;5072725;28;21018;-69
2022/02/18 13:30:56;;;;;;;1.90;0.90;;;16.60;99.90;;;;;;5091385;28;20448;-69
2022/02/18 13:33:28;;;;;;;1.20;0.70;;;16.60;99.90;;;;;;5090632;28;20479;-69
2022/02/18 13:36:01;;;;;;;2.93;0.50;;;16.60;99.90;;;;;;5091206;28;20527;-69
2022/02/18 13:38:32;;;;;;;2.47;1.00;;;16.50;99.90;;;;;;5092863;28;20472;-69
2022/02/18 13:41:16;;;;;;;1.67;0.80;;;16.50;99.90;;;;;;5094776;28;20471;-69
2022/02/18 13:43:45;;;;;;;1.80;1.07;;;16.50;99.90;;;;;;5094970;28;20531;-70
2022/02/18 13:46:25;;;;;;;1.97;0.90;;;16.40;99.90;;;;;;5094790;28;20528;-72
2022/02/18 13:48:53;;;;;;;1.90;1.00;;;16.40;99.90;;;;;;5082179;28;20525;-69
2022/02/18 13:51:22;;;;;;;2.30;0.80;;;16.30;99.90;;;;;;5093650;28;20925;-69
2022/02/18 13:53:49;;;;;;;1.83;0.80;;;16.30;99.90;;;;;;5094270;28;20502;-69
2022/02/18 13:56:26;;;;;;;2.90;0.90;;;16.30;99.90;;;;;;5093673;28;20527;-71
2022/02/18 13:58:53;;;;;;;4.60;1.10;;;16.40;99.90;;;;;;5094060;28;20942;-69
2022/02/18 14:01:21;;;;;;;2.83;1.03;;;16.40;99.90;;;;;;5093471;28;20479;-69
2022/02/18 14:03:58;;;;;;;1.63;0.63;;;16.40;99.90;;;;;;5094495;28;20441;-69
2022/02/18 14:06:32;;;;;;;2.30;0.73;;;16.60;99.90;;;;;;5093187;28;20440;-69
2022/02/18 14:08:59;;;;;;;1.00;0.70;;;16.50;99.90;;;;;;5093712;28;20487;-69